Time;durP1;ratioP1;P1;durP2;ratioP2;P2;SDS_P1;SDS_P2;PMS_P1;PMS_P2;Temp;Humidity;BMP_temperature;BMP_pressure;BME280_temperature;BME280_humidity;BME280_pressure;Samples;Min_cycle;Max_cycle;Signal;HPM_P1;HPM_P2
2021/07/31 00:02:04;;;;;;;14.18;4.22;;;;;;;15.48;100.00;100249.53;3606537;39;20036;-61
2021/07/31 00:04:32;;;;;;;13.18;4.68;;;;;;;15.51;100.00;100265.44;3606234;39;20043;-60
2021/07/31 00:06:58;;;;;;;12.82;4.60;;;;;;;15.53;100.00;100252.50;3607604;39;20044;-60
2021/07/31 00:09:24;;;;;;;10.05;4.70;;;;;;;15.54;100.00;100249.63;3606975;39;20032;-60
2021/07/31 00:11:51;;;;;;;10.75;5.55;;;;;;;15.50;100.00;100242.91;3603284;39;20385;-60
2021/07/31 00:14:17;;;;;;;11.18;5.18;;;;;;;15.53;100.00;100234.38;3590391;40;20033;-60
2021/07/31 00:16:44;;;;;;;13.10;4.93;;;;;;;15.48;100.00;100254.94;3592170;40;20045;-60
2021/07/31 00:19:10;;;;;;;12.30;5.00;;;;;;;15.41;100.00;100249.41;3587470;40;20048;-61
2021/07/31 00:21:38;;;;;;;13.52;4.97;;;;;;;15.34;100.00;100260.16;3590981;40;20036;-62
2021/07/31 00:24:05;;;;;;;12.70;6.35;;;;;;;15.27;100.00;100264.59;3594072;40;20032;-61
2021/07/31 00:26:31;;;;;;;16.40;5.93;;;;;;;15.28;100.00;100266.28;3591031;40;20066;-62
2021/07/31 00:28:58;;;;;;;17.98;6.40;;;;;;;15.34;100.00;100262.84;3593694;40;20020;-61
2021/07/31 00:31:39;;;;;;;12.63;5.35;;;;;;;15.37;100.00;100270.63;3621958;22;20144;-63
2021/07/31 00:34:05;;;;;;;13.18;5.40;;;;;;;15.36;100.00;100258.09;3559972;40;20033;-62
2021/07/31 00:36:32;;;;;;;12.45;5.53;;;;;;;15.35;100.00;100259.09;3562892;40;20388;-62
2021/07/31 00:38:59;;;;;;;16.92;6.72;;;;;;;15.33;100.00;100242.19;3561741;40;20054;-62
2021/07/31 00:41:26;;;;;;;14.13;5.18;;;;;;;15.37;100.00;100248.94;3564541;40;20037;-61
2021/07/31 00:43:52;;;;;;;13.35;6.38;;;;;;;15.37;100.00;100251.66;3568205;40;20122;-62
2021/07/31 00:46:19;;;;;;;16.50;6.57;;;;;;;15.37;100.00;100248.94;3562876;40;20038;-61
2021/07/31 00:48:46;;;;;;;15.68;6.25;;;;;;;15.38;100.00;100250.59;3568294;40;20392;-62
2021/07/31 00:51:14;;;;;;;12.40;6.35;;;;;;;15.40;100.00;100245.84;3564324;40;20086;-61
2021/07/31 00:53:41;;;;;;;12.63;6.07;;;;;;;15.33;100.00;100246.78;3567412;40;20030;-62
2021/07/31 00:56:09;;;;;;;14.57;5.70;;;;;;;15.34;100.00;100238.47;3567979;40;20041;-63
2021/07/31 00:58:36;;;;;;;12.98;5.68;;;;;;;15.34;100.00;100245.72;3565314;40;20035;-61
2021/07/31 01:01:02;;;;;;;12.15;6.20;;;;;;;15.27;100.00;100245.63;3565929;40;20307;-62
2021/07/31 01:03:29;;;;;;;13.80;7.07;;;;;;;15.18;100.00;100230.44;3565935;40;20046;-62
2021/07/31 01:05:55;;;;;;;18.80;7.68;;;;;;;15.11;100.00;100237.63;3566806;40;20381;-61
2021/07/31 01:08:22;;;;;;;11.95;7.25;;;;;;;15.12;100.00;100233.88;3566966;40;20079;-62
2021/07/31 01:10:49;;;;;;;17.55;7.13;;;;;;;15.17;100.00;100239.63;3568403;40;20037;-61
2021/07/31 01:13:18;;;;;;;17.55;6.82;;;;;;;15.15;100.00;100223.53;3566083;40;20038;-61
2021/07/31 01:18:15;;;;;;;16.77;7.63;;;;;;;15.23;100.00;100236.16;3646383;22;20040;-62
2021/07/31 01:20:41;;;;;;;15.52;7.28;;;;;;;15.24;100.00;100246.00;3604708;39;20302;-61
2021/07/31 01:23:09;;;;;;;18.13;7.47;;;;;;;15.24;100.00;100237.88;3602229;39;20048;-62
2021/07/31 01:25:35;;;;;;;13.60;6.53;;;;;;;15.16;100.00;100230.63;3603523;39;20034;-62
2021/07/31 01:30:34;;;;;;;17.33;7.88;;;;;;;15.02;100.00;100239.56;3639017;22;20416;-63
2021/07/31 01:33:00;;;;;;;15.60;8.20;;;;;;;15.00;100.00;100238.88;3601097;39;20052;-62
2021/07/31 01:35:27;;;;;;;15.23;8.13;;;;;;;14.96;100.00;100254.66;3601007;39;20428;-63
2021/07/31 01:37:53;;;;;;;14.70;7.63;;;;;;;14.92;100.00;100253.34;3603622;39;20051;-62
2021/07/31 01:40:21;;;;;;;14.07;8.82;;;;;;;14.84;100.00;100251.53;3603759;39;20268;-62
2021/07/31 01:42:48;;;;;;;18.63;8.57;;;;;;;14.81;100.00;100253.72;3602692;39;20040;-63
2021/07/31 01:45:15;;;;;;;18.98;8.93;;;;;;;14.77;100.00;100252.44;3601772;39;20363;-62
2021/07/31 01:47:43;;;;;;;16.15;8.98;;;;;;;14.80;100.00;100268.31;3602560;39;20056;-62
2021/07/31 01:50:09;;;;;;;22.20;9.82;;;;;;;14.77;100.00;100263.25;3602258;39;20032;-62
2021/07/31 01:52:36;;;;;;;20.95;10.30;;;;;;;14.71;100.00;100262.94;3602613;39;20039;-61
2021/07/31 01:55:02;;;;;;;16.58;9.25;;;;;;;14.71;100.00;100265.66;3600979;39;20391;-62
2021/07/31 01:57:30;;;;;;;18.55;9.07;;;;;;;14.69;100.00;100266.84;3601513;39;20301;-61
2021/07/31 01:59:56;;;;;;;18.77;8.82;;;;;;;14.69;100.00;100273.13;3601302;39;20040;-62
2021/07/31 02:02:23;;;;;;;19.48;9.55;;;;;;;14.73;100.00;100268.19;3601308;39;20044;-61
2021/07/31 02:04:49;;;;;;;21.48;9.73;;;;;;;14.70;100.00;100277.50;3606967;39;20032;-61
2021/07/31 02:07:16;;;;;;;19.77;9.10;;;;;;;14.69;100.00;100262.28;3600975;39;20348;-62
2021/07/31 02:09:42;;;;;;;16.95;9.45;;;;;;;14.66;100.00;100262.66;3601961;39;20038;-62
2021/07/31 02:12:09;;;;;;;17.92;9.52;;;;;;;14.65;100.00;100262.78;3606163;39;20034;-61
2021/07/31 02:14:38;;;;;;;17.77;9.50;;;;;;;14.61;100.00;100267.72;3601646;39;20039;-62
2021/07/31 02:17:04;;;;;;;19.20;10.00;;;;;;;14.63;100.00;100260.25;3605338;39;20057;-62
2021/07/31 02:19:31;;;;;;;17.92;10.13;;;;;;;14.62;100.00;100255.03;3604027;39;20082;-61
2021/07/31 02:21:57;;;;;;;16.98;9.68;;;;;;;14.65;100.00;100255.53;3603426;39;20031;-61
2021/07/31 02:24:23;;;;;;;19.13;10.00;;;;;;;14.63;100.00;100254.00;3604183;39;20566;-62
2021/07/31 02:26:50;;;;;;;14.52;8.90;;;;;;;14.67;100.00;100256.19;3601114;39;20034;-62
2021/07/31 02:29:16;;;;;;;19.10;9.63;;;;;;;14.67;100.00;100248.06;3600919;39;20058;-63
2021/07/31 02:31:44;;;;;;;11.73;8.40;;;;;;;14.67;100.00;100252.66;3596012;40;20043;-62
2021/07/31 02:34:11;;;;;;;13.98;8.95;;;;;;;14.69;100.00;100256.88;3594241;40;20140;-63
2021/07/31 02:36:37;;;;;;;16.02;9.93;;;;;;;14.68;100.00;100248.91;3597122;40;20286;-62
2021/07/31 02:39:04;;;;;;;15.90;9.15;;;;;;;14.63;100.00;100252.13;3596022;40;20045;-63
2021/07/31 02:44:12;;;;;;;14.77;9.93;;;;;;;14.60;100.00;100262.47;3619543;22;20055;-62
2021/07/31 02:46:38;;;;;;;17.55;9.80;;;;;;;14.56;100.00;100264.69;3602072;39;20464;-62
2021/07/31 02:49:06;;;;;;;18.70;10.50;;;;;;;14.55;100.00;100271.13;3604669;39;20040;-61
2021/07/31 02:51:32;;;;;;;19.00;10.00;;;;;;;14.56;100.00;100259.28;3601943;39;20339;-61
2021/07/31 02:53:59;;;;;;;19.00;10.13;;;;;;;14.54;100.00;100255.88;3605043;39;20325;-62
2021/07/31 02:56:26;;;;;;;18.67;10.63;;;;;;;14.49;100.00;100253.72;3601333;39;20048;-62
2021/07/31 02:58:52;;;;;;;20.58;11.35;;;;;;;14.52;100.00;100249.81;3599757;39;20028;-61
2021/07/31 03:01:19;;;;;;;17.17;10.52;;;;;;;14.57;100.00;100255.53;3599937;39;20066;-61
2021/07/31 03:03:45;;;;;;;18.17;10.40;;;;;;;14.55;100.00;100253.00;3598509;39;20032;-60
2021/07/31 03:06:13;;;;;;;18.73;11.05;;;;;;;14.56;100.00;100256.56;3601607;39;20035;-61
2021/07/31 03:08:39;;;;;;;15.90;10.68;;;;;;;14.54;100.00;100247.75;3599030;39;20069;-61
2021/07/31 03:11:08;;;;;;;17.42;10.43;;;;;;;14.53;100.00;100246.06;3600379;39;20039;-61
2021/07/31 03:13:35;;;;;;;18.38;10.55;;;;;;;14.54;100.00;100243.19;3597890;39;20403;-61
2021/07/31 03:16:01;;;;;;;18.75;10.52;;;;;;;14.53;100.00;100246.06;3599569;39;20036;-61
2021/07/31 03:18:28;;;;;;;21.67;11.07;;;;;;;14.54;100.00;100253.19;3603006;39;20055;-61
2021/07/31 03:20:55;;;;;;;14.68;9.40;;;;;;;14.49;100.00;100242.88;3601385;39;20023;-60
2021/07/31 03:23:24;;;;;;;17.95;9.10;;;;;;;14.53;100.00;100246.06;3601922;39;20020;-60
2021/07/31 03:25:55;;;;;;;;;;;;;;;14.52;100.00;100244.41;3600035;39;20040;-61
2021/07/31 03:28:22;;;;;;;12.80;8.50;;;;;;;14.56;100.00;100240.31;3602641;39;19958;-61
2021/07/31 03:30:48;;;;;;;13.70;8.57;;;;;;;14.54;100.00;100245.88;3598110;39;20038;-59
2021/07/31 03:33:15;;;;;;;13.50;8.30;;;;;;;14.55;100.00;100244.03;3601782;39;20024;-61
2021/07/31 03:35:43;;;;;;;14.48;7.82;;;;;;;14.59;100.00;100252.66;3598695;39;20036;-61
2021/07/31 03:38:10;;;;;;;12.02;7.00;;;;;;;14.65;100.00;100243.84;3599267;39;20034;-61
2021/07/31 03:40:38;;;;;;;10.80;6.53;;;;;;;14.65;100.00;100258.25;3603419;39;20600;-60
2021/07/31 03:43:05;;;;;;;11.32;7.57;;;;;;;14.62;100.00;100252.31;3627376;22;20076;-60
2021/07/31 03:45:32;;;;;;;11.90;7.55;;;;;;;14.61;100.00;100254.19;3607187;39;20120;-61
2021/07/31 03:47:58;;;;;;;13.23;8.50;;;;;;;14.59;100.00;100252.66;3605746;39;20402;-60
2021/07/31 03:50:25;;;;;;;11.82;8.10;;;;;;;14.60;100.00;100252.47;3607029;39;20056;-61
2021/07/31 03:52:51;;;;;;;15.18;8.48;;;;;;;14.57;100.00;100257.41;3604033;39;20058;-61
2021/07/31 03:55:18;;;;;;;19.35;9.90;;;;;;;14.57;100.00;100265.53;3605905;39;20361;-61
2021/07/31 03:57:45;;;;;;;15.05;9.00;;;;;;;14.60;100.00;100260.59;3607551;39;20048;-60
2021/07/31 04:00:13;;;;;;;19.20;10.18;;;;;;;14.66;100.00;100270.78;3606259;39;20028;-60
2021/07/31 04:02:39;;;;;;;18.30;10.05;;;;;;;14.70;100.00;100277.50;3602246;39;20032;-60
2021/07/31 04:05:06;;;;;;;20.55;10.80;;;;;;;14.74;100.00;100282.56;3607578;39;20032;-60
2021/07/31 04:07:33;;;;;;;23.63;9.68;;;;;;;14.79;100.00;100286.44;3605572;39;20780;-61
2021/07/31 04:09:59;;;;;;;19.65;9.68;;;;;;;14.78;100.00;100286.59;3598019;39;20383;-61
2021/07/31 04:12:26;;;;;;;19.95;8.73;;;;;;;14.78;100.00;100283.91;3601784;39;20271;-60
2021/07/31 04:14:53;;;;;;;18.33;8.77;;;;;;;14.75;100.00;100292.38;3607223;39;20621;-60
2021/07/31 04:17:20;;;;;;;14.68;7.50;;;;;;;14.79;100.00;100285.59;3607094;39;20047;-61
2021/07/31 04:19:46;;;;;;;14.32;7.97;;;;;;;14.76;100.00;100285.94;3604596;39;20039;-60
2021/07/31 04:22:13;;;;;;;13.85;7.18;;;;;;;14.75;100.00;100303.22;3599507;39;20093;-60
2021/07/31 04:24:39;;;;;;;14.38;7.13;;;;;;;14.79;100.00;100297.25;3606041;39;20024;-60
2021/07/31 04:27:06;;;;;;;14.70;7.55;;;;;;;14.80;100.00;100306.25;3605286;39;20282;-59
2021/07/31 04:29:32;;;;;;;18.55;7.82;;;;;;;14.83;100.00;100303.19;3608899;39;20044;-60
2021/07/31 04:32:00;;;;;;;29.70;8.50;;;;;;;14.76;100.00;100307.63;3604103;39;20081;-60
2021/07/31 04:34:28;;;;;;;13.13;8.15;;;;;;;14.75;100.00;100305.91;3605648;39;20047;-60
2021/07/31 04:36:55;;;;;;;16.15;8.02;;;;;;;14.65;100.00;100308.84;3606596;39;20020;-60
2021/07/31 04:39:21;;;;;;;17.88;8.65;;;;;;;14.61;100.00;100302.94;3606307;39;20030;-60
2021/07/31 04:41:48;;;;;;;19.63;8.65;;;;;;;14.55;100.00;100309.88;3607940;39;20292;-60
2021/07/31 04:44:14;;;;;;;16.25;8.25;;;;;;;14.52;100.00;100307.50;3602947;39;20056;-61
2021/07/31 04:46:41;;;;;;;23.70;9.10;;;;;;;14.59;100.00;100315.78;3607319;39;20068;-60
2021/07/31 04:49:08;;;;;;;16.52;8.07;;;;;;;14.69;100.00;100311.03;3606809;39;20034;-60
2021/07/31 04:51:35;;;;;;;12.35;7.65;;;;;;;14.74;100.00;100310.50;3605010;39;20255;-60
2021/07/31 04:54:01;;;;;;;16.95;8.10;;;;;;;14.88;100.00;100308.91;3605977;39;20394;-61
2021/07/31 04:56:28;;;;;;;21.70;8.05;;;;;;;14.96;100.00;100317.00;3602325;39;20054;-60
2021/07/31 04:58:54;;;;;;;19.17;8.60;;;;;;;14.91;100.00;100311.25;3605122;39;20061;-61
2021/07/31 05:01:21;;;;;;;13.85;7.47;;;;;;;15.00;100.00;100323.75;3603211;39;20287;-60
2021/07/31 05:03:47;;;;;;;15.35;7.10;;;;;;;14.96;100.00;100313.41;3601938;39;20040;-60
2021/07/31 05:06:15;;;;;;;14.70;7.72;;;;;;;14.93;100.00;100316.50;3600187;39;20112;-61
2021/07/31 05:08:41;;;;;;;16.00;7.50;;;;;;;14.95;100.00;100317.16;3658089;22;20080;-61
2021/07/31 05:11:08;;;;;;;14.48;7.43;;;;;;;14.94;100.00;100324.44;3607613;39;20298;-60
2021/07/31 05:13:36;;;;;;;12.23;7.43;;;;;;;14.92;100.00;100315.66;3606080;39;20055;-61
2021/07/31 05:16:02;;;;;;;16.52;7.85;;;;;;;15.05;100.00;100320.50;3601852;39;20585;-60
2021/07/31 05:18:29;;;;;;;9.77;7.32;;;;;;;15.15;100.00;100321.13;3607086;39;20046;-60
2021/07/31 05:20:57;;;;;;;14.82;6.82;;;;;;;15.34;100.00;100327.94;3598775;39;20270;-60
2021/07/31 05:23:26;;;;;;;12.57;7.13;;;;;;;15.20;100.00;100321.41;3601031;39;20047;-61
2021/07/31 05:29:11;;;;;;;12.93;7.75;;;;;;;14.86;100.00;100338.03;3623588;22;20056;-60
2021/07/31 05:31:38;;;;;;;16.65;9.07;;;;;;;14.78;100.00;100338.06;3589903;40;20050;-60
2021/07/31 05:34:04;;;;;;;15.80;8.75;;;;;;;14.73;100.00;100348.63;3591433;40;20385;-60
2021/07/31 05:36:35;;;;;;;19.33;9.98;;;;;;;14.74;100.00;100350.28;3595748;40;20384;-60
2021/07/31 05:39:03;;;;;;;14.02;8.98;;;;;;;14.71;100.00;100349.63;3591806;40;20025;-60
2021/07/31 05:44:35;;;;;;;15.25;8.55;;;;;;;14.81;100.00;100354.84;3615174;22;20056;-59
2021/07/31 05:47:02;;;;;;;15.07;8.27;;;;;;;14.84;100.00;100356.31;3586616;40;20033;-61
2021/07/31 05:49:29;;;;;;;16.58;8.63;;;;;;;14.81;100.00;100351.25;3582400;40;20050;-60
2021/07/31 05:51:56;;;;;;;15.32;7.60;;;;;;;14.82;100.00;100371.94;3585689;40;20041;-60
2021/07/31 05:54:23;;;;;;;10.82;6.93;;;;;;;14.82;100.00;100363.78;3587238;40;20098;-60
2021/07/31 05:56:50;;;;;;;13.02;6.75;;;;;;;14.71;100.00;100368.59;3587260;40;20035;-60
2021/07/31 05:59:17;;;;;;;11.23;6.47;;;;;;;14.77;100.00;100371.63;3587030;40;20028;-62
2021/07/31 06:01:43;;;;;;;15.15;7.45;;;;;;;14.68;100.00;100378.94;3586975;40;20040;-62
2021/07/31 06:04:09;;;;;;;10.98;6.60;;;;;;;14.57;100.00;100371.16;3586334;40;20033;-61
2021/07/31 06:06:36;;;;;;;14.75;7.45;;;;;;;14.52;100.00;100372.50;3587011;40;20036;-61
2021/07/31 06:09:02;;;;;;;12.75;7.88;;;;;;;14.61;100.00;100378.78;3588302;40;20951;-62
2021/07/31 06:11:30;;;;;;;15.20;7.85;;;;;;;14.63;100.00;100386.72;3586815;40;20048;-61
2021/07/31 06:16:27;;;;;;;9.75;7.25;;;;;;;14.52;100.00;100382.50;3627008;22;20266;-62
2021/07/31 06:18:54;;;;;;;14.05;7.68;;;;;;;14.58;100.00;100405.34;3603053;39;20036;-63
2021/07/31 06:21:20;;;;;;;12.90;6.50;;;;;;;14.51;100.00;100406.00;3599076;39;20043;-63
2021/07/31 06:23:47;;;;;;;14.52;7.45;;;;;;;14.57;100.00;100409.91;3601840;39;20038;-63
2021/07/31 06:26:13;;;;;;;10.30;7.10;;;;;;;14.63;100.00;100411.94;3601601;39;20049;-63
2021/07/31 06:28:41;;;;;;;14.55;7.55;;;;;;;14.56;100.00;100408.22;3600933;39;20036;-63
2021/07/31 06:31:07;;;;;;;11.98;7.03;;;;;;;14.63;100.00;100411.94;3603561;39;20054;-62
2021/07/31 06:33:34;;;;;;;10.00;7.22;;;;;;;14.64;100.00;100412.81;3597810;39;20289;-62
2021/07/31 06:36:01;;;;;;;13.15;8.52;;;;;;;14.67;100.00;100418.69;3602719;39;20036;-62
2021/07/31 06:38:27;;;;;;;15.80;8.15;;;;;;;14.68;100.00;100417.69;3600008;39;20044;-62
2021/07/31 06:40:54;;;;;;;14.45;7.82;;;;;;;14.62;100.00;100418.41;3602136;39;20120;-62
2021/07/31 06:43:20;;;;;;;19.27;8.35;;;;;;;14.63;100.00;100403.81;3603276;39;20048;-62
2021/07/31 06:45:48;;;;;;;15.23;8.38;;;;;;;14.62;100.00;100409.41;3601209;39;20306;-63
2021/07/31 06:48:14;;;;;;;12.23;8.52;;;;;;;14.59;100.00;100413.28;3604148;39;20048;-63
2021/07/31 06:50:40;;;;;;;13.95;8.55;;;;;;;14.69;100.00;100419.41;3601905;39;20034;-63
2021/07/31 06:53:07;;;;;;;17.35;9.43;;;;;;;14.79;100.00;100418.34;3603251;39;20386;-62
2021/07/31 06:55:33;;;;;;;16.88;9.35;;;;;;;14.87;100.00;100421.88;3602470;39;20034;-62
2021/07/31 06:58:00;;;;;;;13.73;9.02;;;;;;;14.94;100.00;100432.00;3601352;39;20032;-62
2021/07/31 07:00:26;;;;;;;19.10;9.48;;;;;;;14.95;100.00;100426.41;3600011;39;20040;-63
2021/07/31 07:02:54;;;;;;;14.93;8.68;;;;;;;15.13;100.00;100436.16;3601035;39;20109;-62
2021/07/31 07:05:20;;;;;;;12.15;7.43;;;;;;;15.05;100.00;100429.75;3603781;39;20036;-63
2021/07/31 07:07:47;;;;;;;14.10;8.88;;;;;;;15.00;100.00;100440.28;3599586;39;20383;-63
2021/07/31 07:10:14;;;;;;;15.40;8.50;;;;;;;15.06;100.00;100439.56;3597990;39;20038;-63
2021/07/31 07:12:40;;;;;;;16.13;8.88;;;;;;;15.00;100.00;100448.41;3645840;22;20055;-64
2021/07/31 07:15:07;;;;;;;12.27;8.00;;;;;;;14.99;100.00;100445.88;3601976;39;20053;-65
2021/07/31 07:17:34;;;;;;;18.70;8.13;;;;;;;15.04;100.00;100441.59;3600429;39;20040;-65
2021/07/31 07:20:02;;;;;;;15.23;8.27;;;;;;;14.99;100.00;100446.72;3601364;39;20293;-64
2021/07/31 07:22:28;;;;;;;13.02;7.47;;;;;;;15.02;100.00;100449.06;3602559;39;20028;-63
2021/07/31 07:24:54;;;;;;;10.80;7.72;;;;;;;15.12;100.00;100448.88;3600803;39;20043;-62
2021/07/31 07:27:21;;;;;;;14.35;8.50;;;;;;;15.08;100.00;100458.38;3599846;39;20317;-63
2021/07/31 07:29:47;;;;;;;14.50;7.97;;;;;;;15.01;100.00;100460.91;3599755;39;20039;-62
2021/07/31 07:32:14;;;;;;;11.13;7.65;;;;;;;15.10;100.00;100463.63;3602853;39;20030;-62
2021/07/31 07:34:40;;;;;;;12.55;7.22;;;;;;;15.12;100.00;100457.00;3604463;39;21867;-64
2021/07/31 07:37:08;;;;;;;13.02;7.97;;;;;;;15.04;100.00;100457.84;3600921;39;20028;-63
2021/07/31 07:39:34;;;;;;;11.15;7.57;;;;;;;15.08;100.00;100466.50;3605908;39;20039;-63
2021/07/31 07:42:03;;;;;;;14.77;8.20;;;;;;;15.14;100.00;100470.38;3601575;39;20066;-62
2021/07/31 07:44:30;;;;;;;12.50;7.75;;;;;;;15.21;100.00;100471.38;3598588;39;20044;-63
2021/07/31 07:46:56;;;;;;;13.48;7.85;;;;;;;15.33;100.00;100475.38;3599062;39;20036;-63
2021/07/31 07:49:22;;;;;;;13.27;7.50;;;;;;;15.34;100.00;100477.06;3599120;39;20050;-62
2021/07/31 07:51:49;;;;;;;11.15;7.82;;;;;;;15.32;100.00;100467.41;3600136;39;20062;-62
2021/07/31 07:54:17;;;;;;;13.55;7.57;;;;;;;15.46;100.00;100473.94;3603358;39;20112;-62
2021/07/31 07:56:43;;;;;;;16.00;7.55;;;;;;;15.33;100.00;100474.53;3603354;39;20043;-61
2021/07/31 07:59:09;;;;;;;11.00;7.75;;;;;;;15.47;100.00;100481.06;3604297;39;20032;-61
2021/07/31 08:01:37;;;;;;;11.82;7.03;;;;;;;15.37;100.00;100483.97;3602758;39;20031;-62
2021/07/31 08:04:03;;;;;;;11.70;7.25;;;;;;;15.35;100.00;100478.75;3598401;39;20317;-62
2021/07/31 08:06:30;;;;;;;9.60;6.90;;;;;;;15.50;100.00;100486.13;3599480;39;20394;-62
2021/07/31 08:08:56;;;;;;;10.90;6.63;;;;;;;15.33;100.00;100474.53;3602434;39;20048;-61
2021/07/31 08:17:12;;;;;;;14.13;7.40;;;;;;;15.83;100.00;100488.69;3616357;22;20132;-61
2021/07/31 08:19:38;;;;;;;13.35;7.53;;;;;;;16.04;100.00;100486.16;3606224;39;20063;-62
2021/07/31 08:22:05;;;;;;;12.38;6.03;;;;;;;16.20;100.00;100484.34;3606441;39;20031;-61
2021/07/31 08:24:31;;;;;;;8.68;5.80;;;;;;;16.15;100.00;100482.19;3605159;39;20135;-61
2021/07/31 08:26:58;;;;;;;10.90;6.50;;;;;;;16.38;100.00;100484.84;3606093;39;20051;-61
2021/07/31 08:29:24;;;;;;;9.98;4.95;;;;;;;16.02;100.00;100476.50;3605251;39;20146;-59
2021/07/31 08:31:51;;;;;;;9.38;5.65;;;;;;;16.11;100.00;100478.97;3604233;39;20461;-59
2021/07/31 08:34:18;;;;;;;7.55;5.50;;;;;;;16.15;100.00;100479.47;3599721;39;20032;-59
2021/07/31 08:36:45;;;;;;;11.18;5.28;;;;;;;16.02;100.00;100485.50;3602557;39;20040;-63
2021/07/31 08:39:11;;;;;;;8.65;5.22;;;;;;;15.89;100.00;100486.09;3604693;39;20046;-63
2021/07/31 08:44:04;;;;;;;10.93;5.57;;;;;;;15.75;100.00;100503.97;3624772;22;20048;-61
2021/07/31 08:46:31;;;;;;;8.63;4.88;;;;;;;15.72;100.00;100489.91;3600981;39;20044;-62
2021/07/31 08:48:57;;;;;;;8.10;5.53;;;;;;;15.73;100.00;100481.59;3606871;39;20058;-62
2021/07/31 08:53:54;;;;;;;7.32;4.22;;;;;;;15.67;100.00;100490.44;3627936;22;20047;-63
2021/07/31 08:56:21;;;;;;;6.68;4.35;;;;;;;15.71;100.00;100496.38;3604227;39;20043;-64
2021/07/31 08:58:47;;;;;;;5.75;3.83;;;;;;;15.53;100.00;100512.91;3600271;39;20303;-62
2021/07/31 09:01:14;;;;;;;6.47;3.72;;;;;;;15.76;100.00;100516.50;3602965;39;20034;-61
2021/07/31 09:03:44;;;;;;;6.90;3.75;;;;;;;15.97;100.00;100520.47;3599625;39;20039;-62
2021/07/31 09:06:25;;;;;;;8.05;4.68;;;;;;;16.41;100.00;100525.22;3601487;39;20036;-62
2021/07/31 09:08:53;;;;;;;6.22;4.35;;;;;;;16.80;100.00;100535.06;3600488;39;20395;-62
2021/07/31 09:11:20;;;;;;;8.82;4.30;;;;;;;16.98;100.00;100533.91;3605114;39;20046;-62
2021/07/31 09:13:46;;;;;;;9.52;5.10;;;;;;;17.18;100.00;100531.47;3604214;39;20368;-62
2021/07/31 09:16:13;;;;;;;9.50;4.35;;;;;;;17.72;100.00;100519.41;3602693;39;20039;-62
2021/07/31 09:18:43;;;;;;;11.20;4.28;;;;;;;18.12;100.00;100528.03;3605816;39;20028;-62
2021/07/31 09:21:12;;;;;;;9.77;5.22;;;;;;;17.85;100.00;100525.00;3601084;39;20048;-62
2021/07/31 09:23:53;;;;;;;4.65;3.58;;;;;;;17.70;100.00;100535.09;3602419;39;20052;-62
2021/07/31 09:26:24;;;;;;;8.35;4.00;;;;;;;18.24;100.00;100528.38;3599507;39;20076;-62
2021/07/31 09:29:03;;;;;;;11.32;4.47;;;;;;;18.26;100.00;100530.91;3600697;39;20374;-62
2021/07/31 09:31:31;;;;;;;10.20;4.75;;;;;;;17.97;100.00;100527.25;3602017;39;20035;-62
2021/07/31 09:33:59;;;;;;;10.30;4.15;;;;;;;17.77;100.00;100538.75;3601836;39;20032;-62
2021/07/31 09:36:35;;;;;;;10.10;4.07;;;;;;;17.34;100.00;100544.03;3600295;39;20052;-62
2021/07/31 09:39:04;;;;;;;9.68;4.25;;;;;;;17.39;100.00;100554.34;3602279;39;20035;-62
2021/07/31 09:41:36;;;;;;;9.75;5.18;;;;;;;17.77;100.00;100544.19;3602284;39;20052;-62
2021/07/31 09:44:08;;;;;;;9.07;5.03;;;;;;;18.03;100.00;100549.13;3601877;39;20081;-62
2021/07/31 09:46:45;;;;;;;9.65;4.38;;;;;;;18.03;100.00;100540.97;3601758;39;20067;-62
2021/07/31 09:49:14;;;;;;;8.02;4.50;;;;;;;17.89;100.00;100546.38;3603077;39;20028;-62
2021/07/31 09:51:42;;;;;;;10.53;4.37;;;;;;;17.84;100.00;100556.00;3601038;39;20047;-62
2021/07/31 09:54:11;;;;;;;9.82;4.00;;;;;;;17.68;100.00;100564.34;3600104;39;20128;-63
2021/07/31 09:56:43;;;;;;;7.78;4.70;;;;;;;17.55;100.00;100569.63;3605909;39;20323;-63
2021/07/31 09:59:10;;;;;;;12.32;4.90;;;;;;;17.67;100.00;100570.84;3602374;39;20075;-61
2021/07/31 10:01:38;;;;;;;10.35;4.18;;;;;;;17.60;100.00;100567.22;3602501;39;20036;-60
2021/07/31 10:04:05;;;;;;;10.95;5.03;;;;;;;18.34;100.00;100572.50;3600627;39;20052;-61
2021/07/31 10:06:32;;;;;;;9.90;4.95;;;;;;;18.63;100.00;100561.63;3601340;39;20048;-61
2021/07/31 10:08:59;;;;;;;8.50;3.83;;;;;;;18.81;100.00;100555.69;3600801;39;20050;-62
2021/07/31 10:11:29;;;;;;;15.35;5.07;;;;;;;18.83;100.00;100565.38;3601998;39;20039;-62
2021/07/31 10:13:55;;;;;;;;;;;;;;;19.23;100.00;100567.56;3599578;39;20036;-61
2021/07/31 10:16:22;;;;;;;7.78;3.55;;;;;;;19.11;100.00;100556.38;3604152;39;19986;-61
2021/07/31 10:18:56;;;;;;;5.93;3.70;;;;;;;19.43;100.00;100560.34;3602476;39;20058;-61
2021/07/31 10:21:24;;;;;;;6.93;3.40;;;;;;;18.96;100.00;100559.19;3602237;39;20020;-61
2021/07/31 10:24:06;;;;;;;7.72;4.20;;;;;;;19.04;100.00;100566.41;3600083;39;20313;-61
2021/07/31 10:26:35;;;;;;;8.85;3.90;;;;;;;19.44;100.00;100566.63;3601502;39;20051;-61
2021/07/31 10:29:39;;;;;;;7.03;3.53;;;;;;;19.41;100.00;100564.31;3603593;39;20043;-60
2021/07/31 10:32:37;;;;;;;9.77;4.80;;;;;;;19.23;100.00;100576.59;3603010;39;20051;-60
2021/07/31 10:35:06;;;;;;;7.20;4.43;;;;;;;19.12;100.00;100584.47;3601850;39;20030;-60
2021/07/31 10:37:48;;;;;;;10.77;4.30;;;;;;;18.71;100.00;100578.69;3603815;39;20067;-61
2021/07/31 10:40:43;;;;;;;7.03;4.85;;;;;;;18.31;100.00;100588.38;3601088;39;20107;-60
2021/07/31 10:43:12;;;;;;;8.50;4.07;;;;;;;18.14;100.00;100596.78;3600723;39;20050;-61
2021/07/31 10:45:39;;;;;;;7.55;3.90;;;;;;;17.86;100.00;100602.09;3600772;39;20322;-60
2021/07/31 10:48:22;;;;;;;9.32;5.18;;;;;;;18.07;100.00;100604.03;3598064;39;20120;-60
2021/07/31 10:50:48;;;;;;;9.90;4.45;;;;;;;18.66;100.00;100597.50;3602168;39;20065;-60
2021/07/31 10:53:19;;;;;;;6.90;4.20;;;;;;;19.19;100.00;100594.38;3603602;39;20348;-60
2021/07/31 10:56:04;;;;;;;6.47;3.60;;;;;;;19.65;100.00;100605.78;3606001;39;20032;-60
2021/07/31 10:58:33;;;;;;;7.57;3.75;;;;;;;19.98;100.00;100605.97;3601858;39;20052;-60
2021/07/31 11:01:22;;;;;;;7.05;3.55;;;;;;;20.54;100.00;100604.84;3602452;39;20319;-60
2021/07/31 11:03:49;;;;;;;6.78;3.28;;;;;;;20.93;100.00;100602.38;3601142;39;20040;-60
2021/07/31 11:06:16;;;;;;;6.25;2.97;;;;;;;21.00;100.00;100605.97;3600739;39;20027;-60
2021/07/31 11:09:13;;;;;;;5.90;3.33;;;;;;;20.33;100.00;100608.59;3599078;39;20048;-60
2021/07/31 11:11:40;;;;;;;4.20;2.67;;;;;;;19.64;100.00;100609.56;3600992;39;20047;-60
2021/07/31 11:14:08;;;;;;;5.88;2.75;;;;;;;19.11;100.00;100613.66;3602713;39;20244;-61
2021/07/31 11:16:45;;;;;;;9.00;3.25;;;;;;;19.38;100.00;100617.41;3597956;39;20394;-59
2021/07/31 11:19:12;;;;;;;4.22;2.33;;;;;;;20.22;100.00;100618.25;3599149;39;20427;-60
2021/07/31 11:21:41;;;;;;;8.40;3.13;;;;;;;20.58;100.00;100616.19;3598778;39;20298;-60
2021/07/31 11:24:09;;;;;;;3.53;2.55;;;;;;;20.50;100.00;100621.88;3602356;39;20292;-60
2021/07/31 11:26:42;;;;;;;4.32;1.83;;;;;;;20.39;100.00;100628.78;3598341;39;20040;-60
2021/07/31 11:29:12;;;;;;;4.35;2.00;;;;;;;20.42;100.00;100629.22;3603305;39;20072;-60
2021/07/31 11:31:40;;;;;;;1.85;1.35;;;;;;;20.71;100.00;100627.19;3599730;39;20076;-60
2021/07/31 11:34:08;;;;;;;3.45;1.50;;;;;;;21.22;100.00;100628.47;3602889;39;20035;-60
2021/07/31 11:36:35;;;;;;;4.05;1.75;;;;;;;20.78;100.00;100636.25;3664472;22;20100;-61
2021/07/31 11:39:02;;;;;;;2.58;1.30;;;;;;;20.72;100.00;100639.00;3599737;39;20024;-62
2021/07/31 11:41:30;;;;;;;4.00;1.35;;;;;;;20.15;100.00;100636.50;3600674;39;20052;-60
2021/07/31 11:43:58;;;;;;;3.20;1.55;;;;;;;20.39;100.00;100634.25;3602413;39;20044;-61